Kotoka International Airport

DGAA · Greater Accra, Ghana

METAR history DGAA · Kotoka International Airport

Below you see METARs of the last few days. Select a year to browse through older METARs, from the year 2007 onwards.

December 5, 2022

Time Code Weather Temp. Visibility Ceiling Wind METAR/SPECI
11:00
V
30 °C 10 km+ - 180° 180° 6 kt METAR DGAA 051100Z 18006KT 150V210 9999 SCT025 30/25 Q1012 NOSIG
10:00
V
29 °C 10 km+ - 180° 180° 5 kt METAR DGAA 051000Z 18005KT 150V220 9999 FEW019 SCT022 29/25 Q1012 NOSIG
09:00
V
28 °C 8 km - 260° 260° 5 kt METAR DGAA 050900Z 26005KT 220V300 8000 FEW012 SCT019 28/25 Q1012 NOSIG
08:00
M
27 °C 5 km - 270° 270° 6 kt METAR DGAA 050800Z 27006KT 5000 BR FEW012 27/25 Q1012 NOSIG
07:00
M
26 °C 5 km - 270° 270° 6 kt METAR DGAA 050700Z 27006KT 5000 BR NSC 26/25 Q1011 NOSIG
06:00
U
26 °C 0 m - 270° 270° 5 kt METAR DGAA 050600Z 27005KT 170V300 NSC 26/25 Q1010 NOSIG
05:00
V
26 °C 10 km+ - 260° 260° 5 kt METAR DGAA 050500Z 26005KT CAVOK 26/25 Q1010 NOSIG
00:00
M
27 °C 10 km+ 1,400 ft 190° 190° 4 kt METAR DGAA 050000Z 19004KT 9999 BKN014 27/25 Q1011 NOSIG

December 4, 2022

Time Code Weather Temp. Visibility Ceiling Wind METAR/SPECI
23:00
V
27 °C 10 km+ - 190° 190° 3 kt METAR DGAA 042300Z 19003KT CAVOK 27/25 Q1011 NOSIG
22:00
V
27 °C 10 km+ - 180° 180° 4 kt METAR DGAA 042200Z 18004KT CAVOK 27/25 Q1011 NOSIG
21:00
V
27 °C 10 km+ - 170° 170° 4 kt METAR DGAA 042100Z 17004KT CAVOK 27/25 Q1011 NOSIG
19:00
V
27 °C 10 km+ - 180° 180° 4 kt METAR DGAA 041900Z 18004KT 9999 VCTS FEW013 FEW030CB 27/25 Q0101 NOSIG
18:00
V
27 °C 10 km+ - 170° 170° 5 kt METAR DGAA 041800Z 17005KT 9999 FEW016 FEW030CB 27/24 Q1009 NOSIG
17:00
V
28 °C 10 km+ - 180° 180° 7 kt METAR DGAA 041700Z 18007KT 9999 FEW016 FEW030CB 28/24 Q1008 NOSIG
16:00
V
29 °C 10 km+ - 160° 160° 8 kt METAR DGAA 041600Z 16008KT 140V200 9999 FEW016 29/24 Q1007 NOSIG
15:00
V
30 °C 10 km+ - 160° 160° 7 kt METAR DGAA 041500Z 16007KT 120V200 9999 FEW017 30/24 Q1008 NOSIG
14:00
V
30 °C 10 km+ - 170° 170° 7 kt METAR DGAA 041400Z 17007KT 140V200 9999 FEW017 30/24 Q1008 NOSIG
13:00
V
30 °C 10 km+ - 180° 180° 7 kt METAR DGAA 041300Z 18007KT 130V120 9999 SCT017 30/24 Q1009 NOSIG
12:00
V
30 °C 10 km+ - 160° 160° 5 kt METAR DGAA 041200Z 16005KT 030V200 9999 SCT017 30/23 Q1009 NOSIG
11:00
V
30 °C 10 km+ - 180° 180° 5 kt METAR DGAA 041100Z 18005KT 140V230 9999 SCT017 30/22 Q1010 NOSIG
10:00
V
29 °C 10 km+ - 170° 170° 6 kt METAR DGAA 041000Z 17006KT 140V220 9999 FEW026 29/23 Q1010 NOSIG
09:00
V
28 °C 10 km+ - 190° 190° 5 kt METAR DGAA 040900Z 19005KT 160V220 9999 FEW021 28/23 Q1010 NOSIG
07:00
M
26 °C 6 km - 210° 210° 3 kt METAR DGAA 040700Z 21003KT 190V260 6000 NSC 26/25 Q1009 NOSIG
06:00
V
26 °C 8 km - 210° 210° 4 kt METAR DGAA 040600Z 21004KT 8000 NSC 26/24 Q1009 NOSIG
05:00
V
25 °C 10 km+ - Var Var 2 kt METAR DGAA 040500Z VRB02KT CAVOK 25/24 Q1008 NOSIG
04:00
V
26 °C 10 km+ - 260° 260° 4 kt METAR DGAA 040400Z 26004KT CAVOK 26/24 Q1008 NOSIG
03:00
V
26 °C 10 km+ - 270° 270° 3 kt METAR DGAA 040300Z 27003KT 9999 FEW011 26/24 Q1008 NOSIG
01:00
V
26 °C 10 km+ - 230° 230° 4 kt METAR DGAA 040100Z 23004KT CAVOK 26/25 Q1009 NOSIG

December 3, 2022

Time Code Weather Temp. Visibility Ceiling Wind METAR/SPECI
23:00
V
27 °C 10 km+ - 210° 210° 3 kt METAR DGAA 032300Z 21003KT 180V250 CAVOK 27/25 Q1009 NOSIG
21:00
V
27 °C 10 km+ - 180° 180° 4 kt METAR DGAA 032100Z 18004KT CAVOK 27/25 Q1010 NOSIG
20:00
V
28 °C 10 km+ - 190° 190° 5 kt METAR DGAA 032000Z 19005KT CAVOK 28/25 Q1009 NOSIG
19:00
V
29 °C 10 km+ - 240° 240° 5 kt METAR DGAA 031900Z 24005KT 210V270 CAVOK 29/23 Q1008 NOSIG
18:00
V
29 °C 10 km+ - 250° 250° 7 kt METAR DGAA 031800Z 25007KT CAVOK 29/25 Q1007 NOSIG
17:00
V
29 °C 10 km+ - 190° 190° 6 kt METAR DGAA 031700Z 19006KT CAVOK 29/24 Q1007 NOSIG
16:00
V
31 °C 10 km+ - 290° 290° 8 kt METAR DGAA 031600Z 29008KT CAVOK 31/23 Q1006 NOSIG
15:00
V
32 °C 10 km+ - 280° 280° 7 kt METAR DGAA 031500Z 28007KT 240V300 CAVOK 32/23 Q1006 NOSIG
14:00
V
32 °C 10 km+ - 270° 270° 8 kt METAR DGAA 031400Z 27008KT 240V300 CAVOK 32/23 Q1006 NOSIG
13:00
V
30 °C 10 km+ - 260° 260° 7 kt METAR DGAA 031300Z 26007KT CAVOK 30/23 Q1007 NOSIG
12:00
V
28 °C 10 km+ - 280° 280° 9 kt METAR DGAA 031200Z 28009KT CAVOK 28/23 Q1009 NOSIG
11:00
V
29 °C 10 km+ - 270° 270° 10 kt METAR DGAA 031100Z 27010KT 220V290 CAVOK 29/23 Q1009 NOSIG
10:00
V
27 °C 8 km - 250° 250° 10 kt METAR DGAA 031000Z 25010KT 8000 FEW015 27/24 Q1010 NOSIG

We and third parties follow your internet behavior on our website with cookies. If you continue, we assume you agree with our cookie policy.